sensor_id;sensor_type;location;lat;lon;timestamp;P1;durP1;ratioP1;P2;durP2;ratioP2
7997;SDS011;4044;49.814;7.828;2023-04-03T00:00:40;3.13;;;2.27;;
7997;SDS011;4044;49.814;7.828;2023-04-03T00:03:05;3.77;;;2.90;;
7997;SDS011;4044;49.814;7.828;2023-04-03T00:05:31;2.77;;;2.57;;
7997;SDS011;4044;49.814;7.828;2023-04-03T00:07:56;2.90;;;2.57;;
7997;SDS011;4044;49.814;7.828;2023-04-03T00:10:22;3.40;;;2.70;;
7997;SDS011;4044;49.814;7.828;2023-04-03T00:12:47;9.00;;;2.80;;
7997;SDS011;4044;49.814;7.828;2023-04-03T00:15:13;2.83;;;2.50;;
7997;SDS011;4044;49.814;7.828;2023-04-03T00:17:38;3.03;;;2.50;;
7997;SDS011;4044;49.814;7.828;2023-04-03T00:20:04;2.90;;;2.70;;
7997;SDS011;4044;49.814;7.828;2023-04-03T00:22:30;3.23;;;2.30;;
7997;SDS011;4044;49.814;7.828;2023-04-03T00:24:56;2.70;;;2.40;;
7997;SDS011;4044;49.814;7.828;2023-04-03T00:27:21;2.83;;;2.60;;
7997;SDS011;4044;49.814;7.828;2023-04-03T00:29:47;2.87;;;2.60;;
7997;SDS011;4044;49.814;7.828;2023-04-03T00:32:13;2.60;;;2.40;;
7997;SDS011;4044;49.814;7.828;2023-04-03T00:34:38;2.90;;;2.70;;
7997;SDS011;4044;49.814;7.828;2023-04-03T00:37:04;2.67;;;2.47;;
7997;SDS011;4044;49.814;7.828;2023-04-03T00:39:29;2.70;;;2.43;;
7997;SDS011;4044;49.814;7.828;2023-04-03T00:41:55;3.60;;;2.67;;
7997;SDS011;4044;49.814;7.828;2023-04-03T00:46:58;2.93;;;2.50;;
7997;SDS011;4044;49.814;7.828;2023-04-03T00:49:25;2.57;;;2.40;;
7997;SDS011;4044;49.814;7.828;2023-04-03T00:51:51;3.17;;;2.80;;
7997;SDS011;4044;49.814;7.828;2023-04-03T00:54:17;3.27;;;2.40;;
7997;SDS011;4044;49.814;7.828;2023-04-03T00:56:43;2.90;;;2.67;;
7997;SDS011;4044;49.814;7.828;2023-04-03T00:59:11;3.33;;;2.70;;
7997;SDS011;4044;49.814;7.828;2023-04-03T01:01:46;2.67;;;2.43;;
7997;SDS011;4044;49.814;7.828;2023-04-03T01:04:26;2.60;;;2.40;;
7997;SDS011;4044;49.814;7.828;2023-04-03T01:06:53;2.67;;;2.47;;
7997;SDS011;4044;49.814;7.828;2023-04-03T01:09:22;3.20;;;2.50;;
7997;SDS011;4044;49.814;7.828;2023-04-03T01:11:47;2.70;;;2.50;;
7997;SDS011;4044;49.814;7.828;2023-04-03T01:14:13;2.70;;;2.50;;
7997;SDS011;4044;49.814;7.828;2023-04-03T01:16:39;2.70;;;2.50;;
7997;SDS011;4044;49.814;7.828;2023-04-03T01:19:05;4.23;;;2.70;;
7997;SDS011;4044;49.814;7.828;2023-04-03T01:24:51;2.43;;;2.20;;
7997;SDS011;4044;49.814;7.828;2023-04-03T01:27:18;2.63;;;2.43;;
7997;SDS011;4044;49.814;7.828;2023-04-03T01:29:43;3.27;;;2.47;;
7997;SDS011;4044;49.814;7.828;2023-04-03T01:32:09;3.83;;;2.47;;
7997;SDS011;4044;49.814;7.828;2023-04-03T01:34:35;3.70;;;2.47;;
7997;SDS011;4044;49.814;7.828;2023-04-03T01:37:00;2.53;;;2.27;;
7997;SDS011;4044;49.814;7.828;2023-04-03T01:39:26;3.07;;;2.57;;
7997;SDS011;4044;49.814;7.828;2023-04-03T01:41:51;2.70;;;2.50;;
7997;SDS011;4044;49.814;7.828;2023-04-03T01:44:17;3.57;;;2.67;;
7997;SDS011;4044;49.814;7.828;2023-04-03T01:46:43;4.23;;;2.50;;
7997;SDS011;4044;49.814;7.828;2023-04-03T01:49:08;2.87;;;2.67;;
7997;SDS011;4044;49.814;7.828;2023-04-03T01:51:34;2.60;;;2.40;;
7997;SDS011;4044;49.814;7.828;2023-04-03T01:54:00;2.33;;;2.13;;
7997;SDS011;4044;49.814;7.828;2023-04-03T01:56:25;2.77;;;2.30;;
7997;SDS011;4044;49.814;7.828;2023-04-03T01:58:51;3.67;;;2.57;;
7997;SDS011;4044;49.814;7.828;2023-04-03T02:01:17;2.87;;;2.17;;
7997;SDS011;4044;49.814;7.828;2023-04-03T02:03:42;2.53;;;2.00;;
7997;SDS011;4044;49.814;7.828;2023-04-03T02:06:08;3.47;;;2.50;;
7997;SDS011;4044;49.814;7.828;2023-04-03T02:08:34;2.43;;;2.23;;
7997;SDS011;4044;49.814;7.828;2023-04-03T02:10:59;3.63;;;2.30;;
7997;SDS011;4044;49.814;7.828;2023-04-03T02:13:25;2.40;;;2.20;;
7997;SDS011;4044;49.814;7.828;2023-04-03T02:15:50;2.60;;;2.40;;
7997;SDS011;4044;49.814;7.828;2023-04-03T02:18:16;2.50;;;2.30;;
7997;SDS011;4044;49.814;7.828;2023-04-03T02:20:41;3.00;;;2.40;;
7997;SDS011;4044;49.814;7.828;2023-04-03T02:23:07;2.13;;;2.03;;
7997;SDS011;4044;49.814;7.828;2023-04-03T02:25:33;2.57;;;2.37;;
7997;SDS011;4044;49.814;7.828;2023-04-03T02:27:59;2.67;;;1.90;;
7997;SDS011;4044;49.814;7.828;2023-04-03T02:30:24;3.53;;;2.43;;
7997;SDS011;4044;49.814;7.828;2023-04-03T02:32:50;2.40;;;2.13;;
7997;SDS011;4044;49.814;7.828;2023-04-03T02:35:16;6.90;;;2.30;;
7997;SDS011;4044;49.814;7.828;2023-04-03T02:37:41;4.60;;;2.40;;
7997;SDS011;4044;49.814;7.828;2023-04-03T02:40:07;2.30;;;2.10;;
7997;SDS011;4044;49.814;7.828;2023-04-03T02:42:33;3.00;;;2.37;;
7997;SDS011;4044;49.814;7.828;2023-04-03T02:44:59;2.70;;;2.10;;
7997;SDS011;4044;49.814;7.828;2023-04-03T02:47:25;4.17;;;2.10;;
7997;SDS011;4044;49.814;7.828;2023-04-03T02:49:51;2.50;;;2.10;;
7997;SDS011;4044;49.814;7.828;2023-04-03T02:52:17;3.33;;;2.00;;
7997;SDS011;4044;49.814;7.828;2023-04-03T02:54:43;2.33;;;2.13;;
7997;SDS011;4044;49.814;7.828;2023-04-03T02:57:08;3.67;;;2.07;;
7997;SDS011;4044;49.814;7.828;2023-04-03T02:59:37;3.33;;;1.87;;
7997;SDS011;4044;49.814;7.828;2023-04-03T03:02:07;2.67;;;1.60;;
7997;SDS011;4044;49.814;7.828;2023-04-03T03:04:33;2.33;;;2.10;;
7997;SDS011;4044;49.814;7.828;2023-04-03T03:06:59;4.33;;;1.90;;
7997;SDS011;4044;49.814;7.828;2023-04-03T03:09:24;2.10;;;1.90;;
7997;SDS011;4044;49.814;7.828;2023-04-03T03:11:51;2.83;;;2.63;;
7997;SDS011;4044;49.814;7.828;2023-04-03T03:14:17;2.47;;;2.00;;
7997;SDS011;4044;49.814;7.828;2023-04-03T03:16:43;2.40;;;1.83;;
7997;SDS011;4044;49.814;7.828;2023-04-03T03:19:08;2.40;;;2.00;;
7997;SDS011;4044;49.814;7.828;2023-04-03T03:21:34;2.20;;;2.00;;
7997;SDS011;4044;49.814;7.828;2023-04-03T03:24:00;3.53;;;2.20;;
7997;SDS011;4044;49.814;7.828;2023-04-03T03:26:25;2.03;;;1.83;;
7997;SDS011;4044;49.814;7.828;2023-04-03T03:28:51;2.67;;;1.87;;
7997;SDS011;4044;49.814;7.828;2023-04-03T03:31:16;2.57;;;2.07;;
7997;SDS011;4044;49.814;7.828;2023-04-03T03:33:42;4.60;;;2.10;;
7997;SDS011;4044;49.814;7.828;2023-04-03T03:36:07;3.00;;;2.20;;
7997;SDS011;4044;49.814;7.828;2023-04-03T03:38:33;2.47;;;2.17;;
7997;SDS011;4044;49.814;7.828;2023-04-03T03:40:59;3.27;;;2.00;;
7997;SDS011;4044;49.814;7.828;2023-04-03T03:43:24;2.50;;;2.20;;
7997;SDS011;4044;49.814;7.828;2023-04-03T03:45:51;4.67;;;1.80;;
7997;SDS011;4044;49.814;7.828;2023-04-03T03:48:17;2.80;;;2.20;;
7997;SDS011;4044;49.814;7.828;2023-04-03T03:50:43;3.00;;;2.20;;
7997;SDS011;4044;49.814;7.828;2023-04-03T03:53:09;2.60;;;2.03;;
7997;SDS011;4044;49.814;7.828;2023-04-03T03:55:35;3.53;;;2.23;;
7997;SDS011;4044;49.814;7.828;2023-04-03T03:58:00;2.90;;;2.27;;
7997;SDS011;4044;49.814;7.828;2023-04-03T04:00:26;2.73;;;2.10;;
7997;SDS011;4044;49.814;7.828;2023-04-03T04:02:52;2.40;;;2.17;;
7997;SDS011;4044;49.814;7.828;2023-04-03T04:05:17;2.33;;;2.10;;
7997;SDS011;4044;49.814;7.828;2023-04-03T04:07:43;2.80;;;2.10;;
7997;SDS011;4044;49.814;7.828;2023-04-03T04:10:09;2.57;;;2.03;;
7997;SDS011;4044;49.814;7.828;2023-04-03T04:12:35;2.33;;;2.13;;
7997;SDS011;4044;49.814;7.828;2023-04-03T04:15:01;5.20;;;2.40;;
7997;SDS011;4044;49.814;7.828;2023-04-03T04:17:27;2.30;;;2.10;;
7997;SDS011;4044;49.814;7.828;2023-04-03T04:19:52;3.70;;;2.30;;
7997;SDS011;4044;49.814;7.828;2023-04-03T04:22:18;2.60;;;2.40;;
7997;SDS011;4044;49.814;7.828;2023-04-03T04:24:43;3.93;;;2.37;;
7997;SDS011;4044;49.814;7.828;2023-04-03T04:27:09;3.47;;;2.37;;
7997;SDS011;4044;49.814;7.828;2023-04-03T04:29:35;4.33;;;2.30;;
7997;SDS011;4044;49.814;7.828;2023-04-03T04:32:02;4.10;;;2.67;;
7997;SDS011;4044;49.814;7.828;2023-04-03T04:34:28;4.57;;;3.00;;
7997;SDS011;4044;49.814;7.828;2023-04-03T04:36:54;6.67;;;2.80;;
7997;SDS011;4044;49.814;7.828;2023-04-03T04:39:20;3.27;;;2.80;;
7997;SDS011;4044;49.814;7.828;2023-04-03T04:41:45;2.83;;;2.53;;
7997;SDS011;4044;49.814;7.828;2023-04-03T04:44:11;3.23;;;2.40;;
7997;SDS011;4044;49.814;7.828;2023-04-03T04:46:36;2.97;;;2.60;;
7997;SDS011;4044;49.814;7.828;2023-04-03T04:49:02;5.17;;;2.50;;
7997;SDS011;4044;49.814;7.828;2023-04-03T04:51:27;4.63;;;2.60;;
7997;SDS011;4044;49.814;7.828;2023-04-03T04:53:53;3.63;;;2.50;;
7997;SDS011;4044;49.814;7.828;2023-04-03T04:56:18;4.03;;;2.80;;
7997;SDS011;4044;49.814;7.828;2023-04-03T04:58:44;3.53;;;2.60;;
7997;SDS011;4044;49.814;7.828;2023-04-03T05:01:10;5.63;;;2.63;;
7997;SDS011;4044;49.814;7.828;2023-04-03T05:03:36;7.13;;;2.60;;
7997;SDS011;4044;49.814;7.828;2023-04-03T05:06:02;4.00;;;2.50;;
7997;SDS011;4044;49.814;7.828;2023-04-03T05:08:28;2.50;;;2.30;;
7997;SDS011;4044;49.814;7.828;2023-04-03T05:10:53;4.60;;;2.30;;
7997;SDS011;4044;49.814;7.828;2023-04-03T05:13:19;3.83;;;2.30;;
7997;SDS011;4044;49.814;7.828;2023-04-03T05:15:45;5.17;;;2.47;;
7997;SDS011;4044;49.814;7.828;2023-04-03T05:18:11;4.07;;;2.43;;
7997;SDS011;4044;49.814;7.828;2023-04-03T05:20:36;3.57;;;2.10;;
7997;SDS011;4044;49.814;7.828;2023-04-03T05:23:02;2.53;;;2.10;;
7997;SDS011;4044;49.814;7.828;2023-04-03T05:25:28;5.70;;;2.00;;
7997;SDS011;4044;49.814;7.828;2023-04-03T05:27:53;4.00;;;2.10;;
7997;SDS011;4044;49.814;7.828;2023-04-03T05:30:19;4.07;;;1.83;;
7997;SDS011;4044;49.814;7.828;2023-04-03T05:32:45;4.53;;;1.83;;
7997;SDS011;4044;49.814;7.828;2023-04-03T05:35:10;3.23;;;2.07;;
7997;SDS011;4044;49.814;7.828;2023-04-03T05:37:36;5.43;;;2.03;;
7997;SDS011;4044;49.814;7.828;2023-04-03T05:40:02;3.20;;;1.83;;
7997;SDS011;4044;49.814;7.828;2023-04-03T05:42:29;4.37;;;2.00;;
7997;SDS011;4044;49.814;7.828;2023-04-03T05:44:55;3.73;;;1.83;;
7997;SDS011;4044;49.814;7.828;2023-04-03T05:47:20;3.37;;;1.80;;
7997;SDS011;4044;49.814;7.828;2023-04-03T05:49:46;3.43;;;1.60;;
7997;SDS011;4044;49.814;7.828;2023-04-03T05:52:22;3.20;;;1.60;;
7997;SDS011;4044;49.814;7.828;2023-04-03T05:54:51;4.17;;;1.97;;
7997;SDS011;4044;49.814;7.828;2023-04-03T05:57:17;3.13;;;1.83;;
7997;SDS011;4044;49.814;7.828;2023-04-03T05:59:43;3.87;;;1.80;;
7997;SDS011;4044;49.814;7.828;2023-04-03T06:02:10;3.47;;;1.97;;
7997;SDS011;4044;49.814;7.828;2023-04-03T06:04:38;5.47;;;2.17;;
7997;SDS011;4044;49.814;7.828;2023-04-03T06:07:04;4.60;;;1.83;;
7997;SDS011;4044;49.814;7.828;2023-04-03T06:09:29;5.50;;;2.00;;
7997;SDS011;4044;49.814;7.828;2023-04-03T06:11:55;3.77;;;1.87;;
7997;SDS011;4044;49.814;7.828;2023-04-03T06:14:23;3.93;;;1.80;;
7997;SDS011;4044;49.814;7.828;2023-04-03T06:16:51;2.37;;;1.73;;
7997;SDS011;4044;49.814;7.828;2023-04-03T06:19:17;3.87;;;1.90;;
7997;SDS011;4044;49.814;7.828;2023-04-03T06:21:43;2.87;;;1.77;;
7997;SDS011;4044;49.814;7.828;2023-04-03T06:24:09;6.27;;;2.47;;
7997;SDS011;4044;49.814;7.828;2023-04-03T06:26:37;4.30;;;2.13;;
7997;SDS011;4044;49.814;7.828;2023-04-03T06:29:02;2.20;;;1.90;;
7997;SDS011;4044;49.814;7.828;2023-04-03T06:31:28;3.57;;;2.03;;
7997;SDS011;4044;49.814;7.828;2023-04-03T06:33:53;2.67;;;1.80;;
7997;SDS011;4044;49.814;7.828;2023-04-03T06:36:20;6.57;;;2.30;;
7997;SDS011;4044;49.814;7.828;2023-04-03T06:38:46;2.70;;;1.60;;
7997;SDS011;4044;49.814;7.828;2023-04-03T06:41:12;3.40;;;2.00;;
7997;SDS011;4044;49.814;7.828;2023-04-03T06:43:37;4.60;;;2.00;;
7997;SDS011;4044;49.814;7.828;2023-04-03T06:46:03;4.90;;;2.00;;
7997;SDS011;4044;49.814;7.828;2023-04-03T06:48:30;3.00;;;1.80;;
7997;SDS011;4044;49.814;7.828;2023-04-03T06:50:55;5.50;;;2.00;;
7997;SDS011;4044;49.814;7.828;2023-04-03T06:53:21;4.80;;;1.90;;
7997;SDS011;4044;49.814;7.828;2023-04-03T06:55:46;4.30;;;2.03;;
7997;SDS011;4044;49.814;7.828;2023-04-03T06:58:12;4.03;;;2.30;;
7997;SDS011;4044;49.814;7.828;2023-04-03T07:00:38;4.03;;;2.30;;
7997;SDS011;4044;49.814;7.828;2023-04-03T07:03:04;4.10;;;2.07;;
7997;SDS011;4044;49.814;7.828;2023-04-03T07:05:30;3.57;;;2.17;;
7997;SDS011;4044;49.814;7.828;2023-04-03T07:07:56;5.13;;;2.10;;
7997;SDS011;4044;49.814;7.828;2023-04-03T07:10:21;5.53;;;2.20;;
7997;SDS011;4044;49.814;7.828;2023-04-03T07:12:47;5.13;;;2.40;;
7997;SDS011;4044;49.814;7.828;2023-04-03T07:15:13;5.07;;;2.30;;
7997;SDS011;4044;49.814;7.828;2023-04-03T07:17:39;3.60;;;2.37;;
7997;SDS011;4044;49.814;7.828;2023-04-03T07:20:05;3.93;;;2.40;;
7997;SDS011;4044;49.814;7.828;2023-04-03T07:22:32;3.93;;;2.20;;
7997;SDS011;4044;49.814;7.828;2023-04-03T07:24:57;3.87;;;1.90;;
7997;SDS011;4044;49.814;7.828;2023-04-03T07:27:24;5.23;;;2.60;;
7997;SDS011;4044;49.814;7.828;2023-04-03T07:29:50;3.17;;;2.10;;
7997;SDS011;4044;49.814;7.828;2023-04-03T07:32:15;5.03;;;2.07;;
7997;SDS011;4044;49.814;7.828;2023-04-03T07:34:42;5.97;;;2.40;;
7997;SDS011;4044;49.814;7.828;2023-04-03T07:37:08;3.83;;;2.10;;
7997;SDS011;4044;49.814;7.828;2023-04-03T07:39:34;3.57;;;2.33;;
7997;SDS011;4044;49.814;7.828;2023-04-03T07:42:00;3.53;;;2.07;;
7997;SDS011;4044;49.814;7.828;2023-04-03T07:44:26;3.23;;;2.20;;
7997;SDS011;4044;49.814;7.828;2023-04-03T07:46:52;5.20;;;2.13;;
7997;SDS011;4044;49.814;7.828;2023-04-03T07:49:18;4.53;;;2.40;;
7997;SDS011;4044;49.814;7.828;2023-04-03T07:51:44;2.50;;;2.30;;
7997;SDS011;4044;49.814;7.828;2023-04-03T07:54:09;6.07;;;2.23;;
7997;SDS011;4044;49.814;7.828;2023-04-03T07:56:35;3.23;;;1.80;;
7997;SDS011;4044;49.814;7.828;2023-04-03T07:59:01;3.47;;;2.03;;
7997;SDS011;4044;49.814;7.828;2023-04-03T08:01:26;6.43;;;2.17;;
7997;SDS011;4044;49.814;7.828;2023-04-03T08:03:52;5.20;;;2.30;;
7997;SDS011;4044;49.814;7.828;2023-04-03T08:06:18;4.03;;;2.40;;
7997;SDS011;4044;49.814;7.828;2023-04-03T08:08:43;4.17;;;2.10;;
7997;SDS011;4044;49.814;7.828;2023-04-03T08:11:09;3.13;;;2.40;;
7997;SDS011;4044;49.814;7.828;2023-04-03T08:13:35;4.67;;;2.10;;
7997;SDS011;4044;49.814;7.828;2023-04-03T08:16:11;5.50;;;2.07;;
7997;SDS011;4044;49.814;7.828;2023-04-03T08:18:38;3.90;;;2.13;;
7997;SDS011;4044;49.814;7.828;2023-04-03T08:21:08;5.07;;;2.10;;
7997;SDS011;4044;49.814;7.828;2023-04-03T08:23:35;3.40;;;1.93;;
7997;SDS011;4044;49.814;7.828;2023-04-03T08:26:34;2.00;;;1.80;;
7997;SDS011;4044;49.814;7.828;2023-04-03T08:28:53;5.47;;;2.23;;
7997;SDS011;4044;49.814;7.828;2023-04-03T08:31:18;4.47;;;1.83;;
7997;SDS011;4044;49.814;7.828;2023-04-03T08:33:44;4.73;;;2.30;;
7997;SDS011;4044;49.814;7.828;2023-04-03T08:36:19;4.60;;;2.10;;
7997;SDS011;4044;49.814;7.828;2023-04-03T08:38:49;4.03;;;1.90;;
7997;SDS011;4044;49.814;7.828;2023-04-03T08:41:20;3.00;;;2.20;;
7997;SDS011;4044;49.814;7.828;2023-04-03T08:46:17;4.70;;;2.20;;
7997;SDS011;4044;49.814;7.828;2023-04-03T08:48:47;4.43;;;2.67;;
7997;SDS011;4044;49.814;7.828;2023-04-03T08:51:16;4.20;;;2.23;;
7997;SDS011;4044;49.814;7.828;2023-04-03T08:53:58;3.67;;;2.10;;
7997;SDS011;4044;49.814;7.828;2023-04-03T08:56:31;2.77;;;2.10;;
7997;SDS011;4044;49.814;7.828;2023-04-03T08:59:04;2.63;;;2.10;;
7997;SDS011;4044;49.814;7.828;2023-04-03T09:01:36;5.03;;;2.53;;
7997;SDS011;4044;49.814;7.828;2023-04-03T09:04:05;3.53;;;2.43;;
7997;SDS011;4044;49.814;7.828;2023-04-03T09:06:39;4.70;;;2.30;;
7997;SDS011;4044;49.814;7.828;2023-04-03T09:09:15;3.83;;;2.20;;
7997;SDS011;4044;49.814;7.828;2023-04-03T09:15:05;3.53;;;2.20;;
7997;SDS011;4044;49.814;7.828;2023-04-03T09:17:55;3.97;;;2.03;;
7997;SDS011;4044;49.814;7.828;2023-04-03T09:26:16;3.23;;;2.10;;
7997;SDS011;4044;49.814;7.828;2023-04-03T09:28:45;4.63;;;2.20;;
7997;SDS011;4044;49.814;7.828;2023-04-03T09:31:21;3.13;;;1.60;;
7997;SDS011;4044;49.814;7.828;2023-04-03T09:34:20;2.77;;;2.00;;
7997;SDS011;4044;49.814;7.828;2023-04-03T09:36:54;4.47;;;2.13;;
7997;SDS011;4044;49.814;7.828;2023-04-03T09:39:23;1.60;;;1.50;;
7997;SDS011;4044;49.814;7.828;2023-04-03T09:44:26;2.53;;;1.73;;
7997;SDS011;4044;49.814;7.828;2023-04-03T09:52:39;3.93;;;1.80;;
7997;SDS011;4044;49.814;7.828;2023-04-03T09:55:06;2.57;;;1.80;;
7997;SDS011;4044;49.814;7.828;2023-04-03T09:57:40;4.30;;;1.70;;
7997;SDS011;4044;49.814;7.828;2023-04-03T10:00:06;2.17;;;1.60;;
7997;SDS011;4044;49.814;7.828;2023-04-03T10:02:57;1.90;;;1.60;;
7997;SDS011;4044;49.814;7.828;2023-04-03T10:08:07;1.53;;;1.43;;
7997;SDS011;4044;49.814;7.828;2023-04-03T10:10:43;4.57;;;2.30;;
7997;SDS011;4044;49.814;7.828;2023-04-03T10:13:11;3.40;;;1.83;;
7997;SDS011;4044;49.814;7.828;2023-04-03T10:15:44;1.80;;;1.67;;
7997;SDS011;4044;49.814;7.828;2023-04-03T10:21:15;4.63;;;1.60;;
7997;SDS011;4044;49.814;7.828;2023-04-03T10:23:55;1.97;;;1.47;;
7997;SDS011;4044;49.814;7.828;2023-04-03T10:32:03;2.53;;;1.80;;
7997;SDS011;4044;49.814;7.828;2023-04-03T10:34:42;2.20;;;1.80;;
7997;SDS011;4044;49.814;7.828;2023-04-03T10:39:59;4.20;;;1.97;;
7997;SDS011;4044;49.814;7.828;2023-04-03T10:43:06;2.67;;;1.97;;
7997;SDS011;4044;49.814;7.828;2023-04-03T10:45:53;2.90;;;1.77;;
7997;SDS011;4044;49.814;7.828;2023-04-03T10:48:53;3.60;;;1.80;;
7997;SDS011;4044;49.814;7.828;2023-04-03T10:51:41;1.90;;;1.80;;
7997;SDS011;4044;49.814;7.828;2023-04-03T10:54:14;2.93;;;2.00;;
7997;SDS011;4044;49.814;7.828;2023-04-03T10:56:57;5.13;;;2.03;;
7997;SDS011;4044;49.814;7.828;2023-04-03T11:01:56;2.97;;;1.90;;
7997;SDS011;4044;49.814;7.828;2023-04-03T11:04:27;5.03;;;2.10;;
7997;SDS011;4044;49.814;7.828;2023-04-03T11:09:30;2.07;;;1.67;;
7997;SDS011;4044;49.814;7.828;2023-04-03T11:12:04;2.67;;;2.10;;
7997;SDS011;4044;49.814;7.828;2023-04-03T11:14:36;4.40;;;1.77;;
7997;SDS011;4044;49.814;7.828;2023-04-03T11:19:57;3.30;;;1.73;;
7997;SDS011;4044;49.814;7.828;2023-04-03T11:22:39;3.70;;;1.83;;
7997;SDS011;4044;49.814;7.828;2023-04-03T11:30:57;2.27;;;1.93;;
7997;SDS011;4044;49.814;7.828;2023-04-03T11:35:25;4.23;;;2.13;;
7997;SDS011;4044;49.814;7.828;2023-04-03T11:37:52;2.77;;;1.90;;
7997;SDS011;4044;49.814;7.828;2023-04-03T11:40:25;2.30;;;2.00;;
7997;SDS011;4044;49.814;7.828;2023-04-03T11:45:34;4.83;;;2.20;;
7997;SDS011;4044;49.814;7.828;2023-04-03T11:50:53;3.73;;;2.37;;
7997;SDS011;4044;49.814;7.828;2023-04-03T11:53:29;3.30;;;1.83;;
7997;SDS011;4044;49.814;7.828;2023-04-03T11:55:58;1.90;;;1.73;;
7997;SDS011;4044;49.814;7.828;2023-04-03T11:58:26;3.57;;;2.10;;
7997;SDS011;4044;49.814;7.828;2023-04-03T12:16:22;2.23;;;1.93;;
7997;SDS011;4044;49.814;7.828;2023-04-03T12:19:13;3.57;;;1.80;;
7997;SDS011;4044;49.814;7.828;2023-04-03T12:24:28;3.20;;;2.00;;
7997;SDS011;4044;49.814;7.828;2023-04-03T12:29:23;4.13;;;2.00;;
7997;SDS011;4044;49.814;7.828;2023-04-03T12:40:23;2.35;;;2.00;;
7997;SDS011;4044;49.814;7.828;2023-04-03T12:48:26;2.67;;;2.17;;
7997;SDS011;4044;49.814;7.828;2023-04-03T12:50:54;4.47;;;2.50;;
7997;SDS011;4044;49.814;7.828;2023-04-03T12:53:25;5.80;;;2.37;;
7997;SDS011;4044;49.814;7.828;2023-04-03T12:56:44;4.03;;;2.30;;
7997;SDS011;4044;49.814;7.828;2023-04-03T12:58:47;3.10;;;2.07;;
7997;SDS011;4044;49.814;7.828;2023-04-03T13:01:15;2.73;;;2.30;;
7997;SDS011;4044;49.814;7.828;2023-04-03T13:03:44;2.30;;;2.07;;
7997;SDS011;4044;49.814;7.828;2023-04-03T13:06:17;2.17;;;1.90;;
7997;SDS011;4044;49.814;7.828;2023-04-03T13:08:48;2.67;;;2.10;;
7997;SDS011;4044;49.814;7.828;2023-04-03T13:11:15;3.17;;;1.97;;
7997;SDS011;4044;49.814;7.828;2023-04-03T13:13:53;2.23;;;2.03;;
7997;SDS011;4044;49.814;7.828;2023-04-03T13:16:20;3.97;;;2.30;;
7997;SDS011;4044;49.814;7.828;2023-04-03T13:18:49;2.20;;;2.00;;
7997;SDS011;4044;49.814;7.828;2023-04-03T13:21:23;2.87;;;2.30;;
7997;SDS011;4044;49.814;7.828;2023-04-03T13:23:55;2.92;;;2.28;;
7997;SDS011;4044;49.814;7.828;2023-04-03T13:26:25;2.95;;;2.42;;
7997;SDS011;4044;49.814;7.828;2023-04-03T13:28:59;2.60;;;1.98;;
7997;SDS011;4044;49.814;7.828;2023-04-03T13:31:43;2.17;;;1.97;;
7997;SDS011;4044;49.814;7.828;2023-04-03T13:34:10;2.93;;;1.90;;
7997;SDS011;4044;49.814;7.828;2023-04-03T13:36:46;3.23;;;2.20;;
7997;SDS011;4044;49.814;7.828;2023-04-03T13:39:26;3.22;;;2.28;;
7997;SDS011;4044;49.814;7.828;2023-04-03T13:41:57;2.95;;;1.90;;
7997;SDS011;4044;49.814;7.828;2023-04-03T13:44:27;2.60;;;2.22;;
7997;SDS011;4044;49.814;7.828;2023-04-03T13:46:57;2.90;;;2.25;;
7997;SDS011;4044;49.814;7.828;2023-04-03T13:49:32;2.20;;;2.00;;
7997;SDS011;4044;49.814;7.828;2023-04-03T13:52:02;2.55;;;2.03;;
7997;SDS011;4044;49.814;7.828;2023-04-03T13:54:47;2.17;;;2.00;;
7997;SDS011;4044;49.814;7.828;2023-04-03T13:57:16;2.42;;;1.98;;
7997;SDS011;4044;49.814;7.828;2023-04-03T13:59:42;3.25;;;2.10;;
7997;SDS011;4044;49.814;7.828;2023-04-03T14:07:10;3.08;;;2.05;;
7997;SDS011;4044;49.814;7.828;2023-04-03T14:09:36;2.40;;;2.20;;
7997;SDS011;4044;49.814;7.828;2023-04-03T14:12:05;2.28;;;2.10;;
7997;SDS011;4044;49.814;7.828;2023-04-03T14:14:41;2.30;;;2.10;;
7997;SDS011;4044;49.814;7.828;2023-04-03T14:17:15;2.78;;;2.28;;
7997;SDS011;4044;49.814;7.828;2023-04-03T14:19:43;2.28;;;2.08;;
7997;SDS011;4044;49.814;7.828;2023-04-03T14:22:14;1.98;;;1.75;;
7997;SDS011;4044;49.814;7.828;2023-04-03T14:24:51;2.15;;;2.05;;
7997;SDS011;4044;49.814;7.828;2023-04-03T14:27:19;3.08;;;2.00;;
7997;SDS011;4044;49.814;7.828;2023-04-03T14:29:47;2.22;;;2.13;;
7997;SDS011;4044;49.814;7.828;2023-04-03T14:32:15;3.00;;;2.33;;
7997;SDS011;4044;49.814;7.828;2023-04-03T14:34:42;2.90;;;2.53;;
7997;SDS011;4044;49.814;7.828;2023-04-03T14:37:16;2.80;;;2.20;;
7997;SDS011;4044;49.814;7.828;2023-04-03T14:39:44;2.50;;;1.98;;
7997;SDS011;4044;49.814;7.828;2023-04-03T14:42:17;2.75;;;2.55;;
7997;SDS011;4044;49.814;7.828;2023-04-03T14:44:45;2.30;;;2.10;;
7997;SDS011;4044;49.814;7.828;2023-04-03T14:47:12;2.40;;;2.20;;
7997;SDS011;4044;49.814;7.828;2023-04-03T14:49:38;2.20;;;2.03;;
7997;SDS011;4044;49.814;7.828;2023-04-03T14:52:04;3.63;;;2.40;;
7997;SDS011;4044;49.814;7.828;2023-04-03T14:54:30;2.50;;;2.30;;
7997;SDS011;4044;49.814;7.828;2023-04-03T14:56:57;2.60;;;2.10;;
7997;SDS011;4044;49.814;7.828;2023-04-03T14:59:24;2.15;;;2.00;;
7997;SDS011;4044;49.814;7.828;2023-04-03T15:01:51;2.45;;;2.25;;
7997;SDS011;4044;49.814;7.828;2023-04-03T15:04:17;2.15;;;2.00;;
7997;SDS011;4044;49.814;7.828;2023-04-03T15:06:44;2.13;;;2.03;;
7997;SDS011;4044;49.814;7.828;2023-04-03T15:11:46;2.10;;;2.00;;
7997;SDS011;4044;49.814;7.828;2023-04-03T15:14:12;2.15;;;2.05;;
7997;SDS011;4044;49.814;7.828;2023-04-03T15:16:38;3.03;;;2.30;;
7997;SDS011;4044;49.814;7.828;2023-04-03T15:19:03;4.32;;;2.00;;
7997;SDS011;4044;49.814;7.828;2023-04-03T15:21:29;1.80;;;1.70;;
7997;SDS011;4044;49.814;7.828;2023-04-03T15:23:54;3.72;;;2.30;;
7997;SDS011;4044;49.814;7.828;2023-04-03T15:26:20;2.50;;;2.30;;
7997;SDS011;4044;49.814;7.828;2023-04-03T15:28:46;2.78;;;2.20;;
7997;SDS011;4044;49.814;7.828;2023-04-03T15:31:11;2.30;;;2.10;;
7997;SDS011;4044;49.814;7.828;2023-04-03T15:33:37;2.95;;;2.38;;
7997;SDS011;4044;49.814;7.828;2023-04-03T15:36:03;2.85;;;2.08;;
7997;SDS011;4044;49.814;7.828;2023-04-03T15:38:29;2.13;;;1.90;;
7997;SDS011;4044;49.814;7.828;2023-04-03T15:40:55;3.13;;;2.45;;
7997;SDS011;4044;49.814;7.828;2023-04-03T15:43:22;2.47;;;2.20;;
7997;SDS011;4044;49.814;7.828;2023-04-03T15:45:47;2.30;;;2.10;;
7997;SDS011;4044;49.814;7.828;2023-04-03T15:48:15;2.75;;;2.00;;
7997;SDS011;4044;49.814;7.828;2023-04-03T15:50:41;2.33;;;2.03;;
7997;SDS011;4044;49.814;7.828;2023-04-03T15:53:07;2.28;;;2.08;;
7997;SDS011;4044;49.814;7.828;2023-04-03T15:55:34;2.90;;;2.10;;
7997;SDS011;4044;49.814;7.828;2023-04-03T15:58:00;2.40;;;2.20;;
7997;SDS011;4044;49.814;7.828;2023-04-03T16:00:27;2.67;;;2.25;;
7997;SDS011;4044;49.814;7.828;2023-04-03T16:03:16;2.58;;;2.22;;
7997;SDS011;4044;49.814;7.828;2023-04-03T16:05:41;2.60;;;1.95;;
7997;SDS011;4044;49.814;7.828;2023-04-03T16:08:07;2.65;;;2.10;;
7997;SDS011;4044;49.814;7.828;2023-04-03T16:10:34;2.33;;;2.20;;
7997;SDS011;4044;49.814;7.828;2023-04-03T16:13:01;2.22;;;1.98;;
7997;SDS011;4044;49.814;7.828;2023-04-03T16:15:27;2.22;;;2.03;;
7997;SDS011;4044;49.814;7.828;2023-04-03T16:17:53;2.38;;;2.15;;
7997;SDS011;4044;49.814;7.828;2023-04-03T16:20:19;2.22;;;2.03;;
7997;SDS011;4044;49.814;7.828;2023-04-03T16:22:46;2.33;;;2.13;;
7997;SDS011;4044;49.814;7.828;2023-04-03T16:25:12;3.20;;;2.10;;
7997;SDS011;4044;49.814;7.828;2023-04-03T16:27:38;3.60;;;2.50;;
7997;SDS011;4044;49.814;7.828;2023-04-03T16:30:04;2.40;;;2.30;;
7997;SDS011;4044;49.814;7.828;2023-04-03T16:32:30;2.50;;;2.25;;
7997;SDS011;4044;49.814;7.828;2023-04-03T16:34:57;2.15;;;2.00;;
7997;SDS011;4044;49.814;7.828;2023-04-03T16:37:23;3.50;;;2.22;;
7997;SDS011;4044;49.814;7.828;2023-04-03T16:39:48;2.08;;;1.90;;
7997;SDS011;4044;49.814;7.828;2023-04-03T16:42:14;2.45;;;2.20;;
7997;SDS011;4044;49.814;7.828;2023-04-03T16:44:40;2.50;;;2.30;;
7997;SDS011;4044;49.814;7.828;2023-04-03T16:47:06;3.28;;;2.25;;
7997;SDS011;4044;49.814;7.828;2023-04-03T16:49:32;2.45;;;2.25;;
7997;SDS011;4044;49.814;7.828;2023-04-03T16:51:59;2.22;;;2.03;;
7997;SDS011;4044;49.814;7.828;2023-04-03T16:54:25;2.63;;;2.17;;
7997;SDS011;4044;49.814;7.828;2023-04-03T16:56:51;3.17;;;1.95;;
7997;SDS011;4044;49.814;7.828;2023-04-03T16:59:16;2.33;;;2.10;;
7997;SDS011;4044;49.814;7.828;2023-04-03T17:01:42;3.15;;;2.03;;
7997;SDS011;4044;49.814;7.828;2023-04-03T17:04:08;2.10;;;1.90;;